Time;durP1;ratioP1;P1;durP2;ratioP2;P2;SDS_P1;SDS_P2;PMS_P1;PMS_P2;Temp;Humidity;BMP_temperature;BMP_pressure;BME280_temperature;BME280_humidity;BME280_pressure;Samples;Min_cycle;Max_cycle;Signal;HPM_P1;HPM_P2
2024/04/15 00:00:18;;;;;;;7.10;1.83;;;10.20;99.90;;;9.54;100.00;101814.84;4487599;26;20004;-58
2024/04/15 00:02:19;;;;;;;5.13;1.35;;;10.10;99.90;;;9.39;100.00;101816.06;4482092;26;20008;-58
2024/04/15 00:04:20;;;;;;;5.43;1.42;;;10.00;99.90;;;9.26;100.00;101816.19;4473960;26;19995;-58
2024/04/15 00:06:21;;;;;;;8.40;1.40;;;9.90;99.90;;;9.12;100.00;101811.19;4458262;26;20000;-58
2024/04/15 00:08:22;;;;;;;7.22;1.40;;;9.80;99.90;;;8.98;100.00;101805.31;4457953;26;20015;-58
2024/04/15 00:10:23;;;;;;;6.32;1.13;;;9.70;99.90;;;8.86;100.00;101807.97;4457821;26;20000;-59
2024/04/15 00:12:24;;;;;;;8.55;1.50;;;9.50;99.90;;;8.77;100.00;101807.84;4458103;26;20074;-58
2024/04/15 00:14:25;;;;;;;12.85;1.83;;;9.50;99.90;;;8.69;100.00;101805.78;4457540;26;20406;-58
2024/04/15 00:16:26;;;;;;;8.90;1.95;;;9.40;99.90;;;8.64;100.00;101805.31;4457149;26;20071;-58
2024/04/15 00:18:27;;;;;;;5.78;1.27;;;9.30;99.90;;;8.58;100.00;101812.81;4457983;26;20019;-58
2024/04/15 00:20:29;;;;;;;11.80;2.50;;;9.30;99.90;;;8.50;100.00;101802.06;4457838;26;20007;-59
2024/04/15 00:22:30;;;;;;;8.57;1.60;;;9.20;99.90;;;8.43;100.00;101795.56;4457769;26;20000;-59
2024/04/15 00:24:31;;;;;;;6.97;2.05;;;9.10;99.90;;;8.33;100.00;101791.00;4457641;26;20023;-59
2024/04/15 00:26:32;;;;;;;6.93;1.40;;;9.00;99.90;;;8.28;100.00;101789.69;4457681;26;20015;-59
2024/04/15 00:28:32;;;;;;;6.85;1.60;;;8.90;99.90;;;8.18;100.00;101786.06;4457831;26;20032;-58
2024/04/15 00:30:33;;;;;;;5.18;1.05;;;8.80;99.90;;;8.10;100.00;101784.00;4457482;26;20004;-58
2024/04/15 00:32:34;;;;;;;9.85;2.60;;;8.80;99.90;;;8.01;100.00;101771.53;4457462;26;20004;-58
2024/04/15 00:34:35;;;;;;;8.20;1.65;;;8.60;99.90;;;7.91;100.00;101767.94;4469130;26;20000;-58
2024/04/15 00:36:36;;;;;;;8.98;2.65;;;8.60;99.90;;;7.87;100.00;101771.72;4457534;26;20012;-59
2024/04/15 00:38:37;;;;;;;6.72;1.58;;;8.50;99.90;;;7.81;100.00;101764.31;4457605;26;20436;-58
2024/04/15 00:40:38;;;;;;;7.03;1.60;;;8.40;99.90;;;7.75;100.00;101762.97;4457584;26;20027;-58
2024/04/15 00:42:38;;;;;;;11.00;1.92;;;8.40;99.90;;;7.68;100.00;101748.59;4457598;26;20000;-58
2024/04/15 00:44:39;;;;;;;10.98;2.17;;;8.30;99.90;;;7.65;100.00;101753.25;4457142;26;20004;-58
2024/04/15 00:46:40;;;;;;;6.80;1.42;;;8.30;99.90;;;7.60;100.00;101756.22;4457078;26;20355;-58
2024/04/15 00:48:42;;;;;;;7.68;1.65;;;8.20;99.90;;;7.55;100.00;101758.34;4457375;26;20524;-58
2024/04/15 00:50:46;;;;;;;12.70;2.28;;;8.20;99.90;;;7.54;100.00;101761.06;4457389;26;20000;-58
2024/04/15 00:52:47;;;;;;;6.60;2.03;;;8.10;99.90;;;7.47;100.00;101754.56;4457431;26;20004;-58
2024/04/15 00:54:48;;;;;;;9.38;1.58;;;8.10;99.90;;;7.45;100.00;101756.50;4463851;26;20000;-58
2024/04/15 00:56:49;;;;;;;6.90;1.67;;;8.10;99.90;;;7.44;100.00;101760.06;4457265;26;20012;-58
2024/04/15 00:58:51;;;;;;;7.22;1.38;;;8.00;99.90;;;7.39;100.00;101752.53;4471151;26;20040;-58
2024/04/15 01:00:58;;;;;;;4.57;1.27;;;8.00;99.90;;;7.36;100.00;101760.63;4486462;26;20053;-58
2024/04/15 01:03:00;;;;;;;7.40;1.40;;;7.90;99.90;;;7.32;100.00;101763.59;4484861;26;20008;-58
2024/04/15 01:05:01;;;;;;;4.35;1.38;;;7.90;99.90;;;7.27;100.00;101755.19;4488001;26;20004;-58
2024/04/15 01:07:01;;;;;;;8.35;1.67;;;7.90;99.90;;;7.23;100.00;101755.41;4460885;26;20004;-58
2024/04/15 01:09:02;;;;;;;10.95;1.85;;;7.80;99.90;;;7.19;100.00;101750.50;4465326;26;20033;-58
2024/04/15 01:11:04;;;;;;;10.45;1.85;;;7.80;99.90;;;7.16;100.00;101756.81;4456986;26;20004;-58
2024/04/15 01:13:05;;;;;;;4.22;1.38;;;7.70;99.90;;;7.13;100.00;101757.03;4456867;26;20001;-58
2024/04/15 01:15:06;;;;;;;9.50;1.65;;;7.70;99.90;;;7.08;100.00;101750.41;4456554;26;20325;-58
2024/04/15 01:17:07;;;;;;;6.32;1.38;;;7.70;99.90;;;7.05;100.00;101748.84;4456624;26;20016;-58
2024/04/15 01:19:08;;;;;;;7.80;1.67;;;7.70;99.90;;;7.03;100.00;101750.75;4457069;26;20000;-58
2024/04/15 01:21:08;;;;;;;9.82;2.38;;;7.60;99.90;;;7.02;100.00;101742.97;4456899;26;20037;-58
2024/04/15 01:23:14;;;;;;;6.35;1.52;;;7.60;99.90;;;7.01;100.00;101746.56;4457049;26;20082;-58
2024/04/15 01:25:15;;;;;;;10.23;1.67;;;7.60;99.90;;;6.99;100.00;101743.22;4456957;26;20008;-58
2024/04/15 01:27:17;;;;;;;9.52;2.20;;;7.60;99.90;;;6.98;100.00;101738.91;4456631;26;20000;-58
2024/04/15 01:29:17;;;;;;;10.07;2.17;;;7.60;99.90;;;6.95;100.00;101742.59;4458361;26;20008;-58
2024/04/15 01:31:18;;;;;;;8.00;1.55;;;7.60;99.90;;;6.96;100.00;101749.50;4459327;26;20012;-58
2024/04/15 01:33:19;;;;;;;8.40;1.83;;;7.60;99.90;;;6.93;100.00;101746.28;4459873;26;20459;-58
2024/04/15 01:35:20;;;;;;;8.77;1.70;;;7.50;99.90;;;6.93;100.00;101749.72;4459593;26;20032;-58
2024/04/15 01:37:21;;;;;;;6.75;2.45;;;7.50;99.90;;;6.91;100.00;101750.78;4459586;26;20004;-58
2024/04/15 01:39:21;;;;;;;5.53;1.45;;;7.50;99.90;;;6.89;100.00;101747.41;4459681;26;20031;-58
2024/04/15 01:41:22;;;;;;;6.60;1.90;;;7.50;99.90;;;6.87;100.00;101749.31;4459531;26;20015;-58
2024/04/15 01:43:23;;;;;;;9.55;2.60;;;7.50;99.90;;;6.84;100.00;101739.06;4478938;26;20478;-58
2024/04/15 01:45:24;;;;;;;11.18;1.80;;;7.50;99.90;;;6.83;100.00;101742.59;4459497;26;20004;-58
2024/04/15 01:47:25;;;;;;;7.25;2.53;;;7.50;99.90;;;6.82;100.00;101736.53;4459358;26;20004;-58
2024/04/15 01:49:26;;;;;;;5.47;1.98;;;7.50;99.90;;;6.83;100.00;101742.59;4459644;26;20004;-58
2024/04/15 01:51:27;;;;;;;4.90;1.63;;;7.50;99.90;;;6.81;100.00;101747.94;4459689;26;20048;-58
2024/04/15 01:53:28;;;;;;;5.00;1.60;;;7.40;99.90;;;6.74;100.00;101738.84;4459499;26;20001;-58
2024/04/15 01:55:28;;;;;;;9.20;2.15;;;7.40;99.90;;;6.73;100.00;101741.56;4467812;26;20015;-58
2024/04/15 01:57:29;;;;;;;7.05;2.15;;;7.40;99.90;;;6.70;100.00;101747.88;4459001;26;20004;-58
2024/04/15 01:59:30;;;;;;;8.70;1.88;;;7.40;99.90;;;6.67;100.00;101743.69;4483585;26;20015;-58
2024/04/15 02:01:31;;;;;;;5.28;2.40;;;7.40;99.90;;;6.64;100.00;101743.88;4488308;26;20000;-58
2024/04/15 02:03:32;;;;;;;7.97;2.03;;;7.30;99.90;;;6.60;100.00;101741.59;4484213;26;20019;-58
2024/04/15 02:05:33;;;;;;;9.48;2.03;;;7.30;99.90;;;6.61;100.00;101744.09;4459304;26;20012;-57
2024/04/15 02:07:37;;;;;;;8.07;1.70;;;7.30;99.90;;;6.60;100.00;101742.41;4459509;26;20074;-58
2024/04/15 02:09:38;;;;;;;10.13;2.20;;;7.30;99.90;;;6.60;100.00;101738.97;4463434;26;20011;-58
2024/04/15 02:11:39;;;;;;;10.02;2.65;;;7.30;99.90;;;6.58;100.00;101741.69;4488763;26;20000;-58
2024/04/15 02:13:40;;;;;;;7.35;1.80;;;7.20;99.90;;;6.61;100.00;101738.84;4468202;26;20033;-58
2024/04/15 02:15:41;;;;;;;10.73;1.90;;;7.30;99.90;;;6.58;100.00;101731.19;4458907;26;20040;-58
2024/04/15 02:17:42;;;;;;;6.85;1.67;;;7.30;99.90;;;6.55;100.00;101725.34;4459065;26;20031;-58
2024/04/15 02:19:42;;;;;;;11.35;2.85;;;7.20;99.90;;;6.55;100.00;101715.69;4459215;26;20000;-58
2024/04/15 02:21:43;;;;;;;6.63;1.70;;;7.20;99.90;;;6.54;100.00;101716.63;4459209;26;20000;-58
2024/04/15 02:23:44;;;;;;;10.40;2.22;;;7.20;99.90;;;6.52;100.00;101717.69;4459148;26;20029;-58
2024/04/15 02:25:45;;;;;;;5.35;2.55;;;7.20;99.90;;;6.50;100.00;101715.19;4459278;26;20004;-58
2024/04/15 02:27:46;;;;;;;7.13;2.08;;;7.30;99.90;;;6.57;100.00;101718.22;4459148;26;20011;-58
2024/04/15 02:29:47;;;;;;;11.98;2.40;;;7.20;99.90;;;6.58;100.00;101720.72;4459110;26;20008;-58
2024/04/15 02:31:48;;;;;;;7.68;1.83;;;7.30;99.90;;;6.58;100.00;101733.81;4458625;26;20004;-58
2024/04/15 02:33:51;;;;;;;8.80;1.63;;;7.30;99.90;;;6.55;100.00;101734.03;4459207;26;20414;-58
2024/04/15 02:35:51;;;;;;;9.02;2.05;;;7.30;99.90;;;6.53;100.00;101728.06;4458935;26;20011;-58
2024/04/15 02:37:52;;;;;;;10.63;2.30;;;7.30;99.90;;;6.52;100.00;101741.28;4458899;26;20000;-58
2024/04/15 02:39:53;;;;;;;13.52;2.15;;;7.20;99.90;;;6.54;100.00;101742.03;4475050;26;20043;-58
2024/04/15 02:41:54;;;;;;;12.45;2.72;;;7.20;99.90;;;6.52;100.00;101729.00;4459581;26;20080;-58
2024/04/15 02:43:55;;;;;;;14.00;2.42;;;7.20;99.90;;;6.48;100.00;101726.72;4458602;26;20028;-58
2024/04/15 02:45:55;;;;;;;8.10;1.90;;;7.20;99.90;;;6.46;100.00;101729.44;4458424;26;20028;-58
2024/04/15 02:47:56;;;;;;;8.00;1.95;;;7.20;99.90;;;6.48;100.00;101738.00;4458724;26;20050;-58
2024/04/15 02:49:57;;;;;;;7.18;1.73;;;7.20;99.90;;;6.46;100.00;101725.97;4458984;26;20463;-58
2024/04/15 02:51:58;;;;;;;7.15;1.80;;;7.20;99.90;;;6.48;100.00;101735.41;4458814;26;20004;-58
2024/04/15 02:53:59;;;;;;;12.65;2.13;;;7.20;99.90;;;6.46;100.00;101739.06;4458690;26;20015;-58
2024/04/15 02:56:00;;;;;;;12.82;2.55;;;7.20;99.90;;;6.47;100.00;101749.47;4465759;26;20467;-58
2024/04/15 02:58:01;;;;;;;7.65;2.08;;;7.20;99.90;;;6.43;100.00;101747.97;4460475;26;20008;-58
2024/04/15 03:00:03;;;;;;;7.68;2.17;;;7.20;99.90;;;6.45;100.00;101753.94;4487970;26;20008;-58
2024/04/15 03:02:04;;;;;;;11.77;2.85;;;7.20;99.90;;;6.41;100.00;101751.66;4487930;26;20053;-58
2024/04/15 03:04:04;;;;;;;6.60;2.10;;;7.10;99.90;;;6.38;100.00;101750.09;4475688;26;20013;-58
2024/04/15 03:06:05;;;;;;;13.27;2.38;;;7.10;99.90;;;6.35;100.00;101746.84;4458629;26;20438;-58
2024/04/15 03:08:06;;;;;;;14.10;2.45;;;7.10;99.90;;;6.32;100.00;101745.25;4458570;26;20000;-58
2024/04/15 03:10:07;;;;;;;9.63;2.78;;;7.00;99.90;;;6.29;100.00;101742.84;4458754;26;20004;-58
2024/04/15 03:12:08;;;;;;;7.30;1.98;;;7.00;99.90;;;6.28;100.00;101749.03;4458504;26;20005;-58
2024/04/15 03:14:09;;;;;;;13.15;2.05;;;7.00;99.90;;;6.29;100.00;101736.78;4458232;26;20011;-58
2024/04/15 03:16:10;;;;;;;9.02;2.47;;;6.90;99.90;;;6.28;100.00;101735.06;4467615;26;20015;-58
2024/04/15 03:18:11;;;;;;;7.32;2.35;;;6.90;99.90;;;6.26;100.00;101726.50;4487827;26;20000;-58
2024/04/15 03:20:12;;;;;;;5.38;1.52;;;6.90;99.90;;;6.25;100.00;101719.56;4469134;26;20036;-58
2024/04/15 03:22:13;;;;;;;9.13;1.92;;;6.90;99.90;;;6.24;100.00;101705.66;4458276;26;20008;-58
2024/04/15 03:24:14;;;;;;;5.88;1.88;;;6.90;99.90;;;6.27;100.00;101705.44;4458436;26;20015;-58
2024/04/15 03:26:15;;;;;;;12.13;1.90;;;6.90;99.90;;;6.26;100.00;101711.63;4458181;26;20004;-58
2024/04/15 03:28:15;;;;;;;16.55;2.78;;;6.90;99.90;;;6.27;100.00;101722.94;4458362;26;20446;-58
2024/04/15 03:30:17;;;;;;;9.18;1.83;;;6.90;99.90;;;6.26;100.00;101714.25;4458215;26;20377;-58
2024/04/15 03:32:17;;;;;;;12.27;1.92;;;6.90;99.90;;;6.25;100.00;101723.03;4458222;26;20000;-58
2024/04/15 03:34:19;;;;;;;6.45;1.80;;;6.90;99.90;;;6.22;100.00;101717.16;4458306;26;20340;-58
2024/04/15 03:36:20;;;;;;;3.50;1.92;;;6.90;99.90;;;6.19;100.00;101712.97;4458414;26;20000;-58
2024/04/15 03:38:21;;;;;;;9.70;3.10;;;6.80;99.90;;;6.18;100.00;101715.72;4458359;26;20004;-58
2024/04/15 03:40:22;;;;;;;10.20;2.90;;;6.80;99.90;;;6.17;100.00;101709.63;4464204;26;20019;-58
2024/04/15 03:42:23;;;;;;;14.30;4.20;;;6.80;99.90;;;6.15;100.00;101698.41;4487783;26;20419;-58
2024/04/15 03:44:23;;;;;;;8.82;2.60;;;6.80;99.90;;;6.10;100.00;101690.84;4487409;26;20367;-58
2024/04/15 03:46:24;;;;;;;12.88;3.05;;;6.80;99.90;;;6.10;100.00;101703.97;4487212;26;20339;-58
2024/04/15 03:48:25;;;;;;;8.55;2.78;;;6.80;99.90;;;6.10;100.00;101708.34;4487731;26;20370;-58
2024/04/15 03:50:26;;;;;;;11.95;3.13;;;6.70;99.90;;;6.09;100.00;101711.94;4487542;26;20053;-58
2024/04/15 03:52:27;;;;;;;10.52;2.70;;;6.80;99.90;;;6.06;100.00;101709.53;4485860;26;20039;-58
2024/04/15 03:54:28;;;;;;;7.60;2.45;;;6.70;99.90;;;6.05;100.00;101697.34;4464202;26;20039;-58
2024/04/15 03:56:29;;;;;;;6.32;2.30;;;6.70;99.90;;;6.04;100.00;101708.75;4460001;26;20000;-58
2024/04/15 03:58:29;;;;;;;9.18;2.53;;;6.70;99.90;;;6.01;100.00;101706.34;4467077;26;20031;-58
2024/04/15 04:00:30;;;;;;;7.90;2.83;;;6.70;99.90;;;6.01;100.00;101704.56;4487116;26;20008;-58
2024/04/15 04:02:31;;;;;;;7.85;2.83;;;6.70;99.90;;;6.00;100.00;101705.50;4487243;26;19999;-58
2024/04/15 04:04:32;;;;;;;9.23;2.53;;;6.70;99.90;;;5.99;100.00;101703.00;4468162;26;19996;-58
2024/04/15 04:06:33;;;;;;;7.32;2.75;;;6.70;99.90;;;5.99;100.00;101697.78;4457847;26;20076;-58
2024/04/15 04:08:33;;;;;;;4.65;2.17;;;6.70;99.90;;;5.99;100.00;101703.00;4458020;26;20019;-58
2024/04/15 04:10:34;;;;;;;7.28;2.70;;;6.60;99.90;;;5.98;100.00;101704.78;4458026;26;20040;-58
2024/04/15 04:12:35;;;;;;;7.45;2.75;;;6.60;99.90;;;5.96;100.00;101705.84;4457985;26;20399;-59
2024/04/15 04:14:36;;;;;;;9.55;2.95;;;6.60;99.90;;;5.93;100.00;101696.41;4457752;26;20008;-57
2024/04/15 04:16:37;;;;;;;8.32;3.03;;;6.60;99.90;;;5.94;100.00;101699.88;4457494;26;20036;-58
2024/04/15 04:18:38;;;;;;;14.00;3.38;;;6.60;99.90;;;5.95;100.00;101691.91;4456078;26;20011;-58
2024/04/15 04:20:38;;;;;;;9.88;2.72;;;6.60;99.90;;;5.93;100.00;101687.72;4457833;26;20472;-58
2024/04/15 04:22:39;;;;;;;8.90;2.90;;;6.60;99.90;;;5.92;100.00;101686.03;4457777;26;20017;-58
2024/04/15 04:24:40;;;;;;;7.68;2.55;;;6.60;99.90;;;5.89;100.00;101683.59;4469278;26;20016;-57
2024/04/15 04:26:41;;;;;;;8.00;3.55;;;6.60;99.90;;;5.92;100.00;101681.63;4457827;26;20004;-58
2024/04/15 04:28:42;;;;;;;10.63;3.05;;;6.60;99.90;;;5.92;100.00;101672.94;4457739;26;20040;-58
2024/04/15 04:30:43;;;;;;;11.23;3.20;;;6.60;99.90;;;5.90;100.00;101666.97;4457721;26;20028;-57
2024/04/15 04:32:44;;;;;;;16.13;3.13;;;6.60;99.90;;;5.93;100.00;101669.38;4457385;26;20012;-58
2024/04/15 04:34:44;;;;;;;12.07;3.58;;;6.60;99.90;;;5.89;100.00;101666.13;4465313;26;20004;-58
2024/04/15 04:36:45;;;;;;;10.88;3.08;;;6.60;99.90;;;5.91;100.00;101668.66;4457594;26;20380;-58
2024/04/15 04:38:46;;;;;;;13.32;4.97;;;6.60;99.90;;;5.91;100.00;101663.41;4457573;26;20471;-58
2024/04/15 04:40:58;;;;;;;12.93;5.18;;;6.60;99.90;;;5.86;100.00;101661.09;4457676;26;20058;-58
2024/04/15 04:42:59;;;;;;;13.88;3.97;;;6.60;99.90;;;5.89;100.00;101673.13;4459675;26;20000;-58
2024/04/15 04:45:00;;;;;;;11.07;3.67;;;6.60;99.90;;;5.88;100.00;101672.31;4483402;26;19999;-58
2024/04/15 04:47:01;;;;;;;11.43;4.28;;;6.60;99.90;;;5.85;100.00;101664.66;4486487;26;20014;-58
2024/04/15 04:49:02;;;;;;;7.97;3.30;;;6.60;99.90;;;5.86;100.00;101671.56;4486844;26;20003;-58
2024/04/15 04:51:10;;;;;;;16.85;3.97;;;6.60;99.90;;;5.88;100.00;101669.69;4486590;26;20003;-58
2024/04/15 04:53:11;;;;;;;8.55;3.70;;;6.60;99.90;;;5.86;100.00;101666.31;4480801;26;20000;-58
2024/04/15 04:55:12;;;;;;;11.02;3.70;;;6.60;99.90;;;5.83;100.00;101669.13;4476835;26;20010;-58
2024/04/15 04:57:12;;;;;;;13.63;3.33;;;6.60;99.90;;;5.83;100.00;101660.41;4457434;26;20004;-58
2024/04/15 04:59:14;;;;;;;8.18;3.60;;;6.60;99.90;;;5.83;100.00;101663.88;4477153;26;20035;-58
2024/04/15 05:01:17;;;;;;;12.38;3.70;;;6.50;99.90;;;5.83;100.00;101660.41;4486352;26;20004;-58
2024/04/15 05:03:18;;;;;;;9.10;3.83;;;6.50;99.90;;;5.84;100.00;101654.25;4485171;26;20068;-58
2024/04/15 05:05:19;;;;;;;11.50;4.22;;;6.60;99.90;;;5.82;100.00;101649.13;4475650;26;20012;-58
2024/04/15 05:07:20;;;;;;;9.07;3.20;;;6.60;99.90;;;5.85;100.00;101659.44;4477734;26;20032;-58
2024/04/15 05:09:20;;;;;;;13.18;3.58;;;6.60;99.90;;;5.85;100.00;101653.31;4464273;26;20037;-59
2024/04/15 05:11:21;;;;;;;11.93;3.63;;;6.60;99.90;;;5.84;100.00;101651.63;4460019;26;20090;-58
2024/04/15 05:13:22;;;;;;;11.60;3.20;;;6.50;99.90;;;5.84;100.00;101642.00;4462931;26;20102;-58
2024/04/15 05:15:23;;;;;;;9.05;3.03;;;6.60;99.90;;;5.85;100.00;101648.97;4470837;26;20098;-59
2024/04/15 05:17:24;;;;;;;9.30;4.03;;;6.60;99.90;;;5.85;100.00;101658.56;4459824;26;20012;-59
2024/04/15 05:19:25;;;;;;;13.52;4.07;;;6.50;99.90;;;5.84;100.00;101664.72;4459698;26;20077;-59
2024/04/15 05:21:25;;;;;;;15.68;3.97;;;6.50;99.90;;;5.80;100.00;101658.00;4459719;26;20355;-58
2024/04/15 05:23:28;;;;;;;8.85;3.58;;;6.50;99.90;;;5.83;100.00;101666.50;4463623;26;20540;-59
2024/04/15 05:25:29;;;;;;;7.40;2.95;;;6.50;99.90;;;5.85;100.00;101669.91;4465734;26;20008;-59
2024/04/15 05:27:29;;;;;;;11.85;3.53;;;6.50;99.90;;;5.87;100.00;101662.78;4459704;26;20032;-58
2024/04/15 05:29:30;;;;;;;11.82;3.28;;;6.50;99.90;;;5.88;100.00;101664.47;4459601;26;20035;-59
2024/04/15 05:31:31;;;;;;;7.60;3.50;;;6.60;99.90;;;5.91;100.00;101674.69;4459538;26;20371;-58
2024/04/15 05:33:34;;;;;;;12.98;3.28;;;6.60;99.90;;;5.92;100.00;101681.63;4464389;26;20012;-59
2024/04/15 05:35:34;;;;;;;15.45;4.05;;;6.60;99.90;;;5.94;100.00;101679.72;4458727;26;20388;-59
2024/04/15 05:37:35;;;;;;;9.95;3.00;;;6.60;99.90;;;5.97;100.00;101676.91;4459685;26;20055;-59
2024/04/15 05:39:36;;;;;;;10.10;3.17;;;6.60;99.90;;;5.99;100.00;101676.81;4459815;26;20008;-58
2024/04/15 05:41:37;;;;;;;11.43;2.90;;;6.60;99.90;;;6.03;100.00;101680.91;4459574;26;20004;-58
2024/04/15 05:43:38;;;;;;;8.75;3.25;;;6.70;99.90;;;6.07;100.00;101671.88;4459884;26;20031;-58
2024/04/15 05:45:40;;;;;;;8.65;2.70;;;6.70;99.90;;;6.12;100.00;101668.00;4459455;26;20468;-59
2024/04/15 05:47:41;;;;;;;10.57;2.55;;;6.80;99.90;;;6.15;100.00;101669.59;4459350;26;20343;-59
2024/04/15 05:49:42;;;;;;;9.07;3.47;;;6.80;99.90;;;6.18;100.00;101669.41;4459659;26;20036;-59
2024/04/15 05:51:45;;;;;;;7.57;3.00;;;6.80;99.90;;;6.22;100.00;101676.09;4459546;26;20036;-58
2024/04/15 05:53:45;;;;;;;11.60;3.35;;;6.90;99.90;;;6.25;100.00;101673.25;4466877;26;20097;-59
2024/04/15 05:55:47;;;;;;;7.40;2.80;;;6.90;99.90;;;6.32;100.00;101669.28;4480103;26;20015;-59
2024/04/15 05:57:48;;;;;;;14.15;3.67;;;6.90;99.90;;;6.37;100.00;101668.94;4488996;26;20449;-59
2024/04/15 05:59:49;;;;;;;13.43;3.33;;;7.00;99.90;;;6.43;100.00;101663.28;4460158;26;20028;-59
2024/04/15 06:01:50;;;;;;;8.02;2.10;;;7.10;99.90;;;6.49;100.00;101655.84;4471124;26;20076;-59
2024/04/15 06:03:51;;;;;;;7.85;2.38;;;7.10;99.90;;;6.61;100.00;101662.00;4476011;26;20378;-59
2024/04/15 06:05:52;;;;;;;12.95;2.42;;;7.20;99.90;;;6.83;100.00;101658.69;4459259;26;20040;-59
2024/04/15 06:07:52;;;;;;;8.00;1.90;;;7.40;99.90;;;7.08;100.00;101667.28;4459224;26;20015;-58
2024/04/15 06:09:53;;;;;;;7.50;1.85;;;7.60;99.90;;;7.30;100.00;101669.22;4459463;26;20008;-59
2024/04/15 06:11:54;;;;;;;8.50;2.10;;;7.80;99.90;;;7.53;100.00;101670.13;4459496;26;20000;-59
2024/04/15 06:13:55;;;;;;;9.95;2.75;;;8.10;99.90;;;7.65;100.00;101672.69;4468590;26;20018;-59
2024/04/15 06:15:56;;;;;;;3.70;1.85;;;8.20;99.90;;;7.80;100.00;101671.53;4461179;26;20078;-58
2024/04/15 06:17:56;;;;;;;5.53;2.15;;;8.40;99.90;;;7.88;100.00;101670.13;4459363;26;20077;-59
2024/04/15 06:19:57;;;;;;;4.47;1.70;;;8.50;99.90;;;7.99;100.00;101673.63;4459081;26;20008;-58
2024/04/15 06:22:00;;;;;;;7.63;1.83;;;8.60;99.90;;;8.12;100.00;101684.03;4459299;26;20027;-59
2024/04/15 06:24:02;;;;;;;7.15;1.77;;;8.60;99.90;;;8.19;100.00;101682.59;4466723;26;20049;-59
2024/04/15 06:26:03;;;;;;;9.60;2.30;;;8.70;99.90;;;8.29;100.00;101687.06;4458992;26;20004;-58
2024/04/15 06:28:04;;;;;;;8.60;1.85;;;8.80;99.90;;;8.47;100.00;101684.81;4459390;26;20000;-59
2024/04/15 06:30:06;;;;;;;5.57;1.67;;;9.00;99.90;;;8.60;100.00;101674.97;4459184;26;20016;-58
2024/04/15 06:32:07;;;;;;;10.68;2.42;;;9.10;99.90;;;8.78;100.00;101673.53;4467179;26;20015;-59
2024/04/15 06:34:08;;;;;;;5.80;1.73;;;9.20;99.90;;;8.93;100.00;101675.94;4462564;26;20001;-59
2024/04/15 06:36:09;;;;;;;8.82;1.88;;;9.40;99.90;;;9.04;100.00;101679.38;4461486;26;20011;-59
2024/04/15 06:38:13;;;;;;;10.43;1.42;;;9.60;99.90;;;9.22;100.00;101677.03;4478494;26;20018;-59
2024/04/15 06:40:14;;;;;;;10.60;1.65;;;9.70;99.90;;;9.32;100.00;101667.41;4488305;26;20015;-59
2024/04/15 06:42:14;;;;;;;8.48;1.98;;;9.80;99.90;;;9.22;100.00;101661.25;4488094;26;20003;-58
2024/04/15 06:44:16;;;;;;;7.38;1.52;;;9.80;99.90;;;9.11;100.00;101669.19;4482625;26;20003;-59
2024/04/15 06:46:16;;;;;;;5.25;1.63;;;9.70;99.90;;;8.93;100.00;101668.84;4467996;26;20358;-59
2024/04/15 06:48:17;;;;;;;10.05;2.00;;;9.60;99.90;;;8.79;100.00;101671.75;4458753;26;20004;-59
2024/04/15 06:50:18;;;;;;;4.85;1.42;;;9.50;99.90;;;8.67;100.00;101676.19;4458714;26;20024;-59
2024/04/15 06:52:19;;;;;;;11.20;2.35;;;9.40;99.90;;;8.60;100.00;101682.88;4458833;26;20000;-59
2024/04/15 06:54:20;;;;;;;6.07;1.80;;;9.30;99.90;;;8.58;100.00;101661.13;4468777;26;20004;-59
2024/04/15 06:56:21;;;;;;;7.25;1.90;;;9.20;99.90;;;8.57;100.00;101659.44;4483846;26;20048;-59
2024/04/15 06:58:22;;;;;;;9.70;2.13;;;9.20;99.90;;;8.57;100.00;101666.53;4480331;26;20000;-59
2024/04/15 07:00:23;;;;;;;6.30;2.60;;;9.20;99.90;;;8.57;100.00;101669.97;4458781;26;20015;-59
2024/04/15 07:02:24;;;;;;;11.75;3.00;;;9.20;99.90;;;8.62;100.00;101661.72;4458562;26;20000;-59
2024/04/15 07:04:24;;;;;;;9.80;2.97;;;9.20;99.90;;;8.66;100.00;101658.72;4461204;26;20016;-59
2024/04/15 07:06:25;;;;;;;10.65;2.28;;;9.30;99.90;;;8.72;100.00;101660.06;4488067;26;20039;-59
2024/04/15 07:08:26;;;;;;;9.48;2.58;;;9.30;99.90;;;8.75;100.00;101654.56;4487938;26;20032;-59
2024/04/15 07:10:27;;;;;;;7.00;1.90;;;9.40;99.90;;;8.77;100.00;101650.84;4488158;26;20446;-59
2024/04/15 07:12:28;;;;;;;5.82;2.17;;;9.40;99.90;;;8.79;100.00;101643.66;4487706;26;19999;-59
2024/04/15 07:14:29;;;;;;;5.32;2.13;;;9.40;99.90;;;8.82;100.00;101643.41;4471836;26;20004;-59
2024/04/15 07:16:30;;;;;;;7.70;2.40;;;9.40;99.90;;;8.89;100.00;101635.88;4458112;26;20464;-59
2024/04/15 07:18:30;;;;;;;7.80;2.38;;;9.50;99.90;;;9.01;100.00;101641.94;4458603;26;20381;-59
2024/04/15 07:20:31;;;;;;;7.55;1.90;;;9.60;99.90;;;9.08;100.00;101643.13;4458651;26;20468;-59
2024/04/15 07:22:32;;;;;;;6.68;1.83;;;9.70;99.90;;;9.16;100.00;101640.69;4458282;26;20522;-59
2024/04/15 07:24:33;;;;;;;8.15;2.45;;;9.70;99.90;;;9.28;100.00;101632.63;4464605;26;20020;-59
2024/04/15 07:26:34;;;;;;;10.38;1.73;;;9.90;99.90;;;9.43;100.00;101643.69;4457371;26;20008;-59
2024/04/15 07:28:35;;;;;;;9.18;1.73;;;10.00;99.90;;;9.66;100.00;101653.16;4458602;26;20432;-59
2024/04/15 07:30:36;;;;;;;7.78;1.85;;;10.20;99.90;;;10.01;100.00;101656.28;4458319;26;20758;-59
2024/04/15 07:32:37;;;;;;;10.98;2.28;;;10.40;99.90;;;10.43;100.00;101661.50;4458374;26;20470;-59
2024/04/15 07:34:42;;;;;;;8.98;2.30;;;10.70;99.90;;;10.74;100.00;101644.69;4459917;26;20001;-59
2024/04/15 07:36:42;;;;;;;;;;;11.10;99.90;;;10.77;100.00;101639.16;4457405;26;20004;-59
2024/04/15 07:38:43;;;;;;;6.90;1.30;;;11.20;99.90;;;10.61;100.00;101617.72;4458344;26;20286;-59
2024/04/15 07:40:44;;;;;;;8.82;1.95;;;11.10;99.90;;;10.46;100.00;101608.50;4458153;26;20024;-59
2024/04/15 07:42:45;;;;;;;7.35;2.08;;;11.10;99.90;;;10.35;100.00;101600.69;4457924;26;20000;-60
2024/04/15 07:44:47;;;;;;;10.50;1.80;;;11.00;99.90;;;10.28;100.00;101620.66;4477767;26;20000;-59
2024/04/15 07:46:47;;;;;;;6.47;1.77;;;10.90;99.90;;;10.28;100.00;101625.91;4458736;26;20010;-59
2024/04/15 07:48:48;;;;;;;8.20;1.63;;;10.90;99.90;;;10.24;100.00;101614.81;4458348;26;20000;-59
2024/04/15 07:50:49;;;;;;;8.23;1.33;;;10.90;99.90;;;10.26;100.00;101612.03;4458201;26;20050;-59
2024/04/15 07:52:50;;;;;;;8.25;1.23;;;10.90;99.90;;;10.29;100.00;101612.63;4458252;26;20011;-58
2024/04/15 07:54:51;;;;;;;12.45;2.50;;;10.90;99.90;;;10.34;100.00;101620.13;4468758;26;19996;-58
2024/04/15 07:56:52;;;;;;;6.50;1.27;;;11.00;99.90;;;10.49;100.00;101616.13;4487288;26;20068;-59
2024/04/15 07:58:53;;;;;;;7.13;1.33;;;11.10;99.90;;;10.80;100.00;101612.50;4472896;26;20436;-59
2024/04/15 08:00:55;;;;;;;3.45;1.00;;;11.30;99.90;;;11.24;100.00;101594.44;4461218;26;20529;-59
2024/04/15 08:02:56;;;;;;;5.97;1.00;;;11.70;99.90;;;11.80;100.00;101590.09;4457698;26;20004;-59
2024/04/15 08:04:57;;;;;;;8.35;1.50;;;12.10;99.90;;;12.19;100.00;101578.41;4469821;26;19999;-59
2024/04/15 08:06:58;;;;;;;5.20;1.17;;;12.50;99.90;;;12.43;100.00;101574.38;4487168;26;20027;-59
2024/04/15 08:08:58;;;;;;;7.53;1.17;;;12.70;99.90;;;12.38;100.00;101574.84;4487493;26;20039;-59
2024/04/15 08:10:59;;;;;;;4.93;1.25;;;12.90;99.90;;;12.54;100.00;101576.84;4486611;26;20031;-59
2024/04/15 08:13:00;;;;;;;5.53;0.98;;;13.00;99.90;;;12.86;100.00;101582.47;4478828;26;20043;-59
2024/04/15 08:15:01;;;;;;;7.30;1.33;;;13.20;99.90;;;13.20;100.00;101580.03;4466135;26;19996;-59
2024/04/15 08:17:02;;;;;;;10.95;2.20;;;13.50;99.90;;;13.41;100.00;101582.34;4457657;26;20000;-59
2024/04/15 08:19:03;;;;;;;5.30;0.95;;;13.70;99.90;;;13.59;100.00;101589.25;4457726;26;19996;-59
2024/04/15 08:21:04;;;;;;;11.57;1.58;;;13.90;99.90;;;13.58;100.00;101569.06;4457712;26;20012;-59
2024/04/15 08:23:05;;;;;;;9.32;2.15;;;14.00;99.90;;;13.41;100.00;101566.44;4457498;26;20011;-59
2024/04/15 08:25:08;;;;;;;8.38;1.88;;;14.00;99.90;;;13.56;100.00;101564.91;4461400;26;20008;-59